createdAt,value
2018-01-26T00:00:44.155Z,10.98
2018-01-26T00:03:11.672Z,10.95
2018-01-26T00:05:39.207Z,10.89
2018-01-26T00:08:06.764Z,10.86
2018-01-26T00:10:34.453Z,10.82
2018-01-26T00:13:01.967Z,10.79
2018-01-26T00:15:29.469Z,10.75
2018-01-26T00:17:56.970Z,10.75
2018-01-26T00:20:24.438Z,10.74
2018-01-26T00:22:51.985Z,10.73
2018-01-26T00:25:19.506Z,10.71
2018-01-26T00:27:47.019Z,10.70
2018-01-26T00:30:14.508Z,10.68
2018-01-26T00:32:41.996Z,10.70
2018-01-26T00:35:09.573Z,10.71
2018-01-26T00:37:37.082Z,10.70
2018-01-26T00:40:04.575Z,10.65
2018-01-26T00:42:32.272Z,10.67
2018-01-26T00:44:59.728Z,10.66
2018-01-26T00:47:27.288Z,10.66
2018-01-26T00:49:54.743Z,10.65
2018-01-26T00:52:22.248Z,10.64
2018-01-26T00:54:49.815Z,10.66
2018-01-26T00:57:17.384Z,10.65
2018-01-26T00:59:44.980Z,10.61
2018-01-26T01:02:12.526Z,10.62
2018-01-26T01:04:40.030Z,10.61
2018-01-26T01:07:07.590Z,10.59
2018-01-26T01:09:35.083Z,10.57
2018-01-26T01:12:02.560Z,10.57
2018-01-26T01:14:30.016Z,10.56
2018-01-26T01:16:57.575Z,10.57
2018-01-26T01:19:25.032Z,10.55
2018-01-26T01:21:52.575Z,10.56
2018-01-26T01:24:20.140Z,10.55
2018-01-26T01:26:47.748Z,10.49
2018-01-26T01:29:15.213Z,10.48
2018-01-26T01:31:42.715Z,10.50
2018-01-26T01:34:10.399Z,10.48
2018-01-26T01:36:38.078Z,10.49
2018-01-26T01:39:05.522Z,10.48
2018-01-26T01:41:33.067Z,10.48
2018-01-26T01:44:00.551Z,10.44
2018-01-26T01:46:28.047Z,10.44
2018-01-26T01:49:07.335Z,10.42
2018-01-26T01:51:34.893Z,10.40
2018-01-26T01:54:02.417Z,10.40
2018-01-26T01:56:29.932Z,10.39
2018-01-26T01:58:57.413Z,10.40
2018-01-26T02:01:24.871Z,10.39
2018-01-26T02:03:52.337Z,10.37
2018-01-26T02:06:19.782Z,10.40
2018-01-26T02:08:47.283Z,10.40
2018-01-26T02:11:14.738Z,10.42
2018-01-26T02:13:42.198Z,10.41
2018-01-26T02:16:09.735Z,10.39
2018-01-26T02:18:37.227Z,10.40
2018-01-26T02:21:04.708Z,10.37
2018-01-26T02:23:32.167Z,10.37
2018-01-26T02:25:59.621Z,10.35
2018-01-26T02:28:27.149Z,10.37
2018-01-26T02:30:54.636Z,10.37
2018-01-26T02:33:22.136Z,10.37
2018-01-26T02:35:49.667Z,10.38
2018-01-26T02:38:17.106Z,10.38
2018-01-26T02:40:44.570Z,10.37
2018-01-26T02:43:12.034Z,10.31
2018-01-26T02:45:39.507Z,10.31
2018-01-26T02:48:07.035Z,10.31
2018-01-26T02:50:34.507Z,10.30
2018-01-26T02:53:01.987Z,10.29
2018-01-26T02:55:29.492Z,10.28
2018-01-26T02:57:56.970Z,10.27
2018-01-26T03:00:24.438Z,10.29
2018-01-26T03:02:51.914Z,10.31
2018-01-26T03:05:19.395Z,10.29
2018-01-26T03:07:46.853Z,10.28
2018-01-26T03:10:14.489Z,10.25
2018-01-26T03:12:41.959Z,10.27
2018-01-26T03:15:09.505Z,10.28
2018-01-26T03:17:36.959Z,10.27
2018-01-26T03:20:04.468Z,10.26
2018-01-26T03:22:31.953Z,10.26
2018-01-26T03:24:59.440Z,10.30
2018-01-26T03:27:26.899Z,10.26
2018-01-26T03:29:55.327Z,10.25
2018-01-26T03:32:22.902Z,10.24
2018-01-26T03:34:50.426Z,10.24
2018-01-26T03:37:18.757Z,10.24
2018-01-26T03:39:46.577Z,10.24
2018-01-26T03:42:14.069Z,10.23
2018-01-26T03:44:41.532Z,10.23
2018-01-26T03:47:09.028Z,10.24
2018-01-26T03:49:37.786Z,10.21
2018-01-26T03:52:05.847Z,10.21
2018-01-26T03:54:33.587Z,10.21
2018-01-26T03:57:01.059Z,10.22
2018-01-26T03:59:28.536Z,10.20
2018-01-26T04:01:56.009Z,10.19
2018-01-26T04:04:23.506Z,10.19
2018-01-26T04:06:50.970Z,10.20
2018-01-26T04:09:18.425Z,10.19
2018-01-26T04:11:45.922Z,10.18
2018-01-26T04:14:13.458Z,10.17
2018-01-26T04:16:40.996Z,10.17
2018-01-26T04:19:08.503Z,10.13
2018-01-26T04:21:35.975Z,10.13
2018-01-26T04:24:03.461Z,10.14
2018-01-26T04:26:32.134Z,10.13
2018-01-26T04:28:59.672Z,10.11
2018-01-26T04:31:27.142Z,10.12
2018-01-26T04:33:54.690Z,10.09
2018-01-26T04:36:22.149Z,10.04
2018-01-26T04:38:49.637Z,10.01
2018-01-26T04:41:17.102Z,9.98
2018-01-26T04:43:44.592Z,9.99
2018-01-26T04:46:12.043Z,10.01
2018-01-26T04:48:39.508Z,10.03
2018-01-26T04:51:07.063Z,9.99
2018-01-26T04:53:34.624Z,9.97
2018-01-26T04:56:02.130Z,9.97
2018-01-26T04:58:29.598Z,9.94
2018-01-26T05:00:57.065Z,9.95
2018-01-26T05:03:24.579Z,9.97
2018-01-26T05:05:52.041Z,9.95
2018-01-26T05:08:19.534Z,9.93
2018-01-26T05:10:47.031Z,9.93
2018-01-26T05:13:14.511Z,9.93
2018-01-26T05:15:42.193Z,9.93
2018-01-26T05:18:10.215Z,9.89
2018-01-26T05:20:37.690Z,9.87
2018-01-26T05:23:05.164Z,9.87
2018-01-26T05:25:32.622Z,9.83
2018-01-26T05:28:00.117Z,9.85
2018-01-26T05:30:27.608Z,9.85
2018-01-26T05:32:55.137Z,9.81
2018-01-26T05:35:22.621Z,9.81
2018-01-26T05:37:50.219Z,9.79
2018-01-26T05:40:17.711Z,9.77
2018-01-26T05:42:45.190Z,9.75
2018-01-26T05:45:12.724Z,9.71
2018-01-26T05:47:40.269Z,9.70
2018-01-26T05:50:07.702Z,9.66
2018-01-26T05:52:35.198Z,9.64
2018-01-26T05:55:02.738Z,9.62
2018-01-26T05:57:30.213Z,9.59
2018-01-26T05:59:57.702Z,9.59
2018-01-26T06:02:25.273Z,9.61
2018-01-26T06:07:25.908Z,9.53
2018-01-26T06:09:53.410Z,9.52
2018-01-26T06:12:20.906Z,9.54
2018-01-26T06:14:48.352Z,9.53
2018-01-26T06:17:15.813Z,9.52
2018-01-26T06:19:43.785Z,9.49
2018-01-26T06:22:11.297Z,9.50
2018-01-26T06:24:38.759Z,9.51
2018-01-26T06:27:06.261Z,9.49
2018-01-26T06:29:33.712Z,9.50
2018-01-26T06:32:01.283Z,9.49
2018-01-26T06:34:29.721Z,9.46
2018-01-26T06:36:57.163Z,9.48
2018-01-26T06:39:24.664Z,9.54
2018-01-26T06:41:52.110Z,9.61
2018-01-26T06:44:19.617Z,9.64
2018-01-26T06:46:47.148Z,9.65
2018-01-26T06:49:14.772Z,9.60
2018-01-26T06:51:42.322Z,9.58
2018-01-26T06:54:09.969Z,9.58
2018-01-26T06:56:37.437Z,9.54
2018-01-26T06:59:04.986Z,9.52
2018-01-26T07:01:32.551Z,9.53
2018-01-26T07:04:00.043Z,9.52
2018-01-26T07:06:27.775Z,9.49
2018-01-26T07:08:55.375Z,9.45
2018-01-26T07:11:22.972Z,9.39
2018-01-26T07:13:50.516Z,9.45
2018-01-26T07:16:18.023Z,9.41
2018-01-26T07:18:45.526Z,9.41
2018-01-26T07:21:13.287Z,9.37
2018-01-26T07:23:40.874Z,9.32
2018-01-26T07:26:08.364Z,9.30
2018-01-26T07:28:35.927Z,9.26
2018-01-26T07:31:03.465Z,9.17
2018-01-26T07:33:30.992Z,9.12
2018-01-26T07:35:58.545Z,9.16
2018-01-26T07:38:26.028Z,9.16
2018-01-26T07:40:53.716Z,9.08
2018-01-26T07:43:21.373Z,9.11
2018-01-26T07:45:48.925Z,9.10
2018-01-26T07:48:16.441Z,9.09
2018-01-26T07:50:44.075Z,9.09
2018-01-26T07:53:11.580Z,9.01
2018-01-26T07:55:39.083Z,8.96
2018-01-26T07:58:06.621Z,9.00
2018-01-26T08:00:34.193Z,9.01
2018-01-26T08:03:02.065Z,9.00
2018-01-26T08:05:29.565Z,9.00
2018-01-26T08:07:57.020Z,8.94
2018-01-26T08:10:24.705Z,8.98
2018-01-26T08:12:52.326Z,9.01
2018-01-26T08:15:19.834Z,9.03
2018-01-26T08:17:47.382Z,9.03
2018-01-26T08:20:14.940Z,8.97
2018-01-26T08:22:42.422Z,8.92
2018-01-26T08:25:10.038Z,8.94
2018-01-26T08:27:37.519Z,8.87
2018-01-26T08:30:05.012Z,8.88
2018-01-26T08:32:32.590Z,8.88
2018-01-26T08:35:00.118Z,8.90
2018-01-26T08:37:27.612Z,8.94
2018-01-26T08:39:55.161Z,9.01
2018-01-26T08:42:22.676Z,9.01
2018-01-26T08:44:50.265Z,8.99
2018-01-26T08:47:17.784Z,8.98
2018-01-26T08:49:45.290Z,9.04
2018-01-26T08:52:12.812Z,9.04
2018-01-26T08:54:40.554Z,9.03
2018-01-26T08:57:08.060Z,9.04
2018-01-26T08:59:35.613Z,9.01
2018-01-26T09:02:03.100Z,9.06
2018-01-26T09:04:30.660Z,9.08
2018-01-26T09:06:58.187Z,9.09
2018-01-26T09:09:25.687Z,9.05
2018-01-26T09:11:53.198Z,8.97
2018-01-26T09:14:25.659Z,8.91
2018-01-26T09:16:53.683Z,8.88
2018-01-26T09:19:21.199Z,8.85
2018-01-26T09:21:48.851Z,8.91
2018-01-26T09:24:16.438Z,8.96
2018-01-26T09:26:45.432Z,9.00
2018-01-26T09:29:12.912Z,8.96
2018-01-26T09:31:40.480Z,8.95
2018-01-26T09:34:07.954Z,8.93
2018-01-26T09:36:36.478Z,8.91
2018-01-26T09:39:04.306Z,8.94
2018-01-26T09:41:31.862Z,8.88
2018-01-26T09:43:59.452Z,8.92
2018-01-26T09:46:27.033Z,8.94
2018-01-26T09:48:54.607Z,8.95
2018-01-26T09:51:22.230Z,8.99
2018-01-26T09:53:49.736Z,8.97
2018-01-26T09:56:17.288Z,9.00
2018-01-26T09:58:45.011Z,8.94
2018-01-26T10:01:12.513Z,8.98
2018-01-26T10:03:39.999Z,8.98
2018-01-26T10:06:08.239Z,8.98
2018-01-26T10:08:35.762Z,9.03
2018-01-26T10:11:03.269Z,9.07
2018-01-26T10:13:30.818Z,9.08
2018-01-26T10:15:58.304Z,9.10
2018-01-26T10:18:25.810Z,9.12
2018-01-26T10:20:53.320Z,9.16
2018-01-26T10:23:20.905Z,9.14
2018-01-26T10:25:48.476Z,9.12
2018-01-26T10:28:16.134Z,9.12
2018-01-26T10:30:47.166Z,9.17
2018-01-26T10:33:24.537Z,9.15
2018-01-26T10:35:52.019Z,9.13
2018-01-26T10:38:19.587Z,9.14
2018-01-26T10:40:47.048Z,9.12
2018-01-26T10:43:14.578Z,9.11
2018-01-26T10:45:42.108Z,9.11
2018-01-26T10:48:09.633Z,9.16
2018-01-26T10:50:37.168Z,9.15
2018-01-26T10:53:04.759Z,9.20
2018-01-26T10:55:32.241Z,9.13
2018-01-26T10:57:59.750Z,9.15
2018-01-26T11:00:27.264Z,9.16
2018-01-26T11:02:58.016Z,9.23
2018-01-26T11:05:25.492Z,9.27
2018-01-26T11:07:53.005Z,9.27
2018-01-26T11:10:20.747Z,9.30
2018-01-26T11:12:48.258Z,9.28
2018-01-26T11:15:15.734Z,9.28
2018-01-26T11:17:43.193Z,9.31
2018-01-26T11:20:10.712Z,9.31
2018-01-26T11:22:38.141Z,9.36
2018-01-26T11:25:05.676Z,9.39
2018-01-26T11:27:33.159Z,9.37
2018-01-26T11:30:03.531Z,9.35
2018-01-26T11:32:31.097Z,9.37
2018-01-26T11:34:58.775Z,9.34
2018-01-26T11:37:26.309Z,9.37
2018-01-26T11:39:53.813Z,9.39
2018-01-26T11:42:21.373Z,9.37
2018-01-26T11:44:48.934Z,9.45
2018-01-26T11:47:16.455Z,9.45
2018-01-26T11:49:44.147Z,9.42
2018-01-26T11:52:11.658Z,9.40
2018-01-26T11:54:39.219Z,9.38
2018-01-26T11:57:06.746Z,9.33
2018-01-26T11:59:34.338Z,9.30
2018-01-26T12:02:01.938Z,9.35
2018-01-26T12:04:29.471Z,9.31
2018-01-26T12:06:57.106Z,9.32
2018-01-26T12:09:24.639Z,9.37
2018-01-26T12:11:52.785Z,9.37
2018-01-26T12:14:20.426Z,9.35
2018-01-26T12:16:47.955Z,9.32
2018-01-26T12:19:15.658Z,9.28
2018-01-26T12:21:44.975Z,9.31
2018-01-26T12:24:15.005Z,9.29
2018-01-26T12:26:42.639Z,9.23
2018-01-26T12:29:10.136Z,9.26
2018-01-26T12:31:37.634Z,9.26
2018-01-26T12:34:05.139Z,9.26
2018-01-26T12:36:32.727Z,9.22
2018-01-26T12:39:00.277Z,9.22
2018-01-26T12:41:27.726Z,9.25
2018-01-26T12:43:55.364Z,9.22
2018-01-26T12:46:22.913Z,9.29
2018-01-26T12:48:50.568Z,9.27
2018-01-26T12:51:18.151Z,9.27
2018-01-26T12:53:45.722Z,9.25
2018-01-26T12:56:13.269Z,9.27
2018-01-26T12:58:40.811Z,9.29
2018-01-26T13:01:08.342Z,9.25
2018-01-26T13:03:36.428Z,9.30
2018-01-26T13:06:04.029Z,9.31
2018-01-26T13:08:31.548Z,9.27
2018-01-26T13:10:59.063Z,9.25
2018-01-26T13:13:26.712Z,9.29
2018-01-26T13:15:54.253Z,9.33
2018-01-26T13:18:21.797Z,9.28
2018-01-26T13:20:49.295Z,9.26
2018-01-26T13:23:16.863Z,9.22
2018-01-26T13:25:44.427Z,9.17
2018-01-26T13:28:12.149Z,9.17
2018-01-26T13:30:39.714Z,9.09
2018-01-26T13:33:07.292Z,9.13
2018-01-26T13:35:34.844Z,9.12
2018-01-26T13:38:02.310Z,9.08
2018-01-26T13:40:29.854Z,9.03
2018-01-26T13:42:57.381Z,9.02
2018-01-26T13:45:24.923Z,9.10
2018-01-26T13:47:53.354Z,9.09
2018-01-26T13:50:20.881Z,9.08
2018-01-26T13:52:48.429Z,9.08
2018-01-26T13:55:15.950Z,9.04
2018-01-26T13:57:43.571Z,9.03
2018-01-26T14:00:11.035Z,9.01
2018-01-26T14:02:38.496Z,8.94
2018-01-26T14:05:06.076Z,8.95
2018-01-26T14:07:33.888Z,8.96
2018-01-26T14:10:01.557Z,8.99
2018-01-26T14:12:29.165Z,9.04
2018-01-26T14:14:56.703Z,9.05
2018-01-26T14:17:24.244Z,9.06
2018-01-26T14:19:51.783Z,9.09
2018-01-26T14:22:19.331Z,9.07
2018-01-26T14:24:46.919Z,9.04
2018-01-26T14:27:14.480Z,9.07
2018-01-26T14:29:41.994Z,9.06
2018-01-26T14:32:09.516Z,9.06
2018-01-26T14:34:36.972Z,9.13
2018-01-26T14:37:04.538Z,9.15
2018-01-26T14:39:32.154Z,9.17
2018-01-26T14:41:59.649Z,9.17
2018-01-26T14:44:27.132Z,9.15
2018-01-26T14:46:54.699Z,9.20
2018-01-26T14:49:22.260Z,9.23
2018-01-26T14:51:49.781Z,9.27
2018-01-26T14:54:17.320Z,9.33
2018-01-26T14:56:44.923Z,9.31
2018-01-26T14:59:12.462Z,9.26
2018-01-26T15:01:40.016Z,9.26
2018-01-26T15:04:07.470Z,9.24
2018-01-26T15:06:35.113Z,9.22
2018-01-26T15:09:02.605Z,9.21
2018-01-26T15:11:31.233Z,9.13
2018-01-26T15:13:58.852Z,9.09
2018-01-26T15:16:26.349Z,9.08
2018-01-26T15:18:54.575Z,9.04
2018-01-26T15:21:22.120Z,9.04
2018-01-26T15:23:49.606Z,9.04
2018-01-26T15:26:17.138Z,9.00
2018-01-26T15:28:44.714Z,9.00
2018-01-26T15:31:12.325Z,9.05
2018-01-26T15:33:39.873Z,9.02
2018-01-26T15:36:07.368Z,8.98
2018-01-26T15:38:34.846Z,8.99
2018-01-26T15:41:02.359Z,8.95
2018-01-26T15:43:29.846Z,8.92
2018-01-26T15:45:57.540Z,8.90
2018-01-26T15:48:25.069Z,8.90
2018-01-26T15:50:52.579Z,8.90
2018-01-26T15:53:20.088Z,8.91
2018-01-26T15:55:47.639Z,8.90
2018-01-26T15:58:15.236Z,8.94
2018-01-26T16:00:42.790Z,8.94
2018-01-26T16:03:10.350Z,8.96
2018-01-26T16:05:37.917Z,8.91
2018-01-26T16:08:05.444Z,8.88
2018-01-26T16:10:32.951Z,8.86
2018-01-26T16:13:01.476Z,8.84
2018-01-26T16:15:29.267Z,8.85
2018-01-26T16:17:57.691Z,8.93
2018-01-26T16:20:25.279Z,8.95
2018-01-26T16:22:52.872Z,8.94
2018-01-26T16:25:20.583Z,8.92
2018-01-26T16:27:48.105Z,8.96
2018-01-26T16:30:15.612Z,8.93
2018-01-26T16:32:43.080Z,8.94
2018-01-26T16:35:10.604Z,8.90
2018-01-26T16:37:38.189Z,8.86
2018-01-26T16:40:05.684Z,8.85
2018-01-26T16:42:33.159Z,8.83
2018-01-26T16:45:00.664Z,8.86
2018-01-26T16:47:29.213Z,8.86
2018-01-26T16:49:56.811Z,8.89
2018-01-26T16:52:24.328Z,8.88
2018-01-26T16:54:51.912Z,8.94
2018-01-26T16:57:19.446Z,8.98
2018-01-26T16:59:46.994Z,8.92
2018-01-26T17:02:14.615Z,8.88
2018-01-26T17:04:42.099Z,8.82
2018-01-26T17:07:09.671Z,8.81
2018-01-26T17:09:37.245Z,8.82
2018-01-26T17:12:05.078Z,8.86
2018-01-26T17:14:32.588Z,8.87
2018-01-26T17:17:00.189Z,8.89
2018-01-26T17:19:27.857Z,8.86
2018-01-26T17:21:55.428Z,8.85
2018-01-26T17:24:23.049Z,8.87
2018-01-26T17:26:50.576Z,8.86
2018-01-26T17:29:18.077Z,8.85
2018-01-26T17:31:45.649Z,8.83
2018-01-26T17:34:16.241Z,8.84
2018-01-26T17:36:44.397Z,8.86
2018-01-26T17:39:14.904Z,8.86
2018-01-26T17:41:42.939Z,8.84
2018-01-26T17:44:10.493Z,8.84
2018-01-26T17:46:38.123Z,8.83
2018-01-26T17:49:05.690Z,8.82
2018-01-26T17:51:33.304Z,8.82
2018-01-26T17:54:00.991Z,8.80
2018-01-26T17:56:28.466Z,8.80
2018-01-26T17:58:55.977Z,8.78
2018-01-26T18:01:23.468Z,8.80
2018-01-26T18:03:51.068Z,8.77
2018-01-26T18:06:18.546Z,8.75
2018-01-26T18:08:46.877Z,8.77
2018-01-26T18:11:16.469Z,8.76
2018-01-26T18:13:44.004Z,8.75
2018-01-26T18:16:11.698Z,8.74
2018-01-26T18:18:40.169Z,8.70
2018-01-26T18:21:07.650Z,8.74
2018-01-26T18:23:35.347Z,8.77
2018-01-26T18:26:03.288Z,8.73
2018-01-26T18:28:30.784Z,8.68
2018-01-26T18:30:58.276Z,8.64
2018-01-26T18:33:25.830Z,8.64
2018-01-26T18:35:53.395Z,8.58
2018-01-26T18:38:21.094Z,8.59
2018-01-26T18:40:48.763Z,8.58
2018-01-26T18:43:16.374Z,8.58
2018-01-26T18:45:44.839Z,8.59
2018-01-26T18:48:12.383Z,8.57
2018-01-26T18:50:40.042Z,8.59
2018-01-26T18:53:07.657Z,8.58
2018-01-26T18:55:35.213Z,8.57
2018-01-26T18:58:03.608Z,8.60
2018-01-26T19:00:31.138Z,8.60
2018-01-26T19:02:58.718Z,8.67
2018-01-26T19:05:27.865Z,8.62
2018-01-26T19:07:55.760Z,8.61
2018-01-26T19:10:23.316Z,8.53
2018-01-26T19:12:50.874Z,8.54
2018-01-26T19:15:18.433Z,8.56
2018-01-26T19:17:46.086Z,8.56
2018-01-26T19:20:13.604Z,8.58
2018-01-26T19:22:41.245Z,8.59
2018-01-26T19:25:08.747Z,8.61
2018-01-26T19:27:36.298Z,8.62
2018-01-26T19:30:03.756Z,8.61
2018-01-26T19:32:31.401Z,8.61
2018-01-26T19:34:58.918Z,8.60
2018-01-26T19:37:28.040Z,8.57
2018-01-26T19:39:58.100Z,8.54
2018-01-26T19:42:25.662Z,8.53
2018-01-26T19:44:53.179Z,8.51
2018-01-26T19:47:20.814Z,8.50
2018-01-26T19:49:48.295Z,8.46
2018-01-26T19:52:16.649Z,8.46
2018-01-26T19:54:46.769Z,8.48
2018-01-26T19:57:14.313Z,8.51
2018-01-26T19:59:41.873Z,8.52
2018-01-26T20:02:09.490Z,8.54
2018-01-26T20:04:42.582Z,8.50
2018-01-26T20:07:27.376Z,8.47
2018-01-26T20:09:55.011Z,8.45
2018-01-26T20:12:22.651Z,8.44
2018-01-26T20:14:50.230Z,8.46
2018-01-26T20:17:17.820Z,8.46
2018-01-26T20:19:45.340Z,8.49
2018-01-26T20:22:12.909Z,8.51
2018-01-26T20:24:40.440Z,8.53
2018-01-26T20:27:08.062Z,8.52
2018-01-26T20:29:35.547Z,8.52
2018-01-26T20:32:03.056Z,8.54
2018-01-26T20:34:30.604Z,8.55
2018-01-26T20:36:58.104Z,8.52
2018-01-26T20:39:26.497Z,8.56
2018-01-26T20:41:54.017Z,8.55
2018-01-26T20:44:21.618Z,8.50
2018-01-26T20:46:49.198Z,8.48
2018-01-26T20:49:16.695Z,8.50
2018-01-26T20:51:45.337Z,8.50
2018-01-26T20:54:13.514Z,8.44
2018-01-26T20:56:41.135Z,8.43
2018-01-26T20:59:08.677Z,8.43
2018-01-26T21:01:36.267Z,8.44
2018-01-26T21:04:03.815Z,8.47
2018-01-26T21:06:31.372Z,8.54
2018-01-26T21:08:58.939Z,8.54
2018-01-26T21:11:26.504Z,8.49
2018-01-26T21:13:53.975Z,8.42
2018-01-26T21:16:22.080Z,8.39
2018-01-26T21:18:49.579Z,8.41
2018-01-26T21:21:17.046Z,8.38
2018-01-26T21:23:44.556Z,8.38
2018-01-26T21:26:12.095Z,8.39
2018-01-26T21:28:39.628Z,8.33
2018-01-26T21:31:07.151Z,8.31
2018-01-26T21:33:34.656Z,8.32
2018-01-26T21:36:02.296Z,8.31
2018-01-26T21:38:29.793Z,8.29
2018-01-26T21:40:57.296Z,8.25
2018-01-26T21:43:24.793Z,8.22
2018-01-26T21:45:52.308Z,8.21
2018-01-26T21:48:19.915Z,8.17
2018-01-26T21:53:14.235Z,8.19
2018-01-26T21:55:41.773Z,8.23
2018-01-26T21:58:10.128Z,8.21
2018-01-26T22:00:38.525Z,8.21
2018-01-26T22:03:06.049Z,8.17
2018-01-26T22:05:33.629Z,8.22
2018-01-26T22:08:03.782Z,8.22
2018-01-26T22:10:32.968Z,8.18
2018-01-26T22:13:00.493Z,8.13
2018-01-26T22:15:28.050Z,8.17
2018-01-26T22:17:55.754Z,8.10
2018-01-26T22:20:23.362Z,8.11
2018-01-26T22:22:50.928Z,8.15
2018-01-26T22:25:18.482Z,8.13
2018-01-26T22:27:46.177Z,8.12
2018-01-26T22:32:40.485Z,8.21
2018-01-26T22:35:07.960Z,8.20
2018-01-26T22:37:35.455Z,8.19
2018-01-26T22:40:02.954Z,8.14
2018-01-26T22:42:30.525Z,8.13
2018-01-26T22:44:58.161Z,8.11
2018-01-26T22:47:25.667Z,8.17
2018-01-26T22:49:53.440Z,8.16
2018-01-26T22:52:20.953Z,8.21
2018-01-26T22:54:48.408Z,8.19
2018-01-26T22:57:15.870Z,8.17
2018-01-26T22:59:43.326Z,8.17
2018-01-26T23:02:11.015Z,8.10
2018-01-26T23:04:38.600Z,8.06
2018-01-26T23:07:06.065Z,8.03
2018-01-26T23:12:00.707Z,8.05
2018-01-26T23:14:28.226Z,8.07
2018-01-26T23:16:55.707Z,8.06
2018-01-26T23:19:23.197Z,8.08
2018-01-26T23:21:50.703Z,8.11
2018-01-26T23:24:18.181Z,8.10
2018-01-26T23:26:45.692Z,8.04
2018-01-26T23:29:13.168Z,8.05
2018-01-26T23:31:40.651Z,8.02
2018-01-26T23:34:08.119Z,8.04
2018-01-26T23:36:36.396Z,8.10
2018-01-26T23:39:04.644Z,8.08
2018-01-26T23:41:32.202Z,8.05
2018-01-26T23:44:00.706Z,8.10
2018-01-26T23:46:28.166Z,8.11
2018-01-26T23:48:55.705Z,8.05
2018-01-26T23:51:23.401Z,8.08
2018-01-26T23:53:50.940Z,8.00
2018-01-26T23:56:18.445Z,7.98
2018-01-26T23:58:46.048Z,7.97
